Time;durP1;ratioP1;P1;durP2;ratioP2;P2;SDS_P1;SDS_P2;PMS_P1;PMS_P2;Temp;Humidity;BMP_temperature;BMP_pressure;BME280_temperature;BME280_humidity;BME280_pressure;Samples;Min_cycle;Max_cycle;Signal;HPM_P1;HPM_P2
2021/06/29 00:00:43;;;;;;;14.13;12.73;;;;;;;;;;3585529;40;20424;-76
2021/06/29 00:03:10;;;;;;;12.67;11.57;;;;;;;;;;3585019;40;20484;-76
2021/06/29 00:05:38;;;;;;;15.00;12.40;;;;;;;;;;3583733;39;20459;-76
2021/06/29 00:08:07;;;;;;;13.87;12.67;;;;;;;;;;3582533;39;20424;-76
2021/06/29 00:10:33;;;;;;;14.50;13.30;;;;;;;;;;3572889;40;20738;-76
2021/06/29 00:12:59;;;;;;;12.93;11.93;;;;;;;;;;3584059;40;20840;-77
2021/06/29 00:15:26;;;;;;;14.10;12.70;;;;;;;;;;3585091;40;21050;-76
2021/06/29 00:17:52;;;;;;;14.90;13.50;;;;;;;;;;3585387;40;20840;-77
2021/06/29 00:20:19;;;;;;;15.70;14.00;;;;;;;;;;3583829;40;20424;-76
2021/06/29 00:22:46;;;;;;;14.40;13.13;;;;;;;;;;3583802;40;20813;-77
2021/06/29 00:25:13;;;;;;;14.67;13.03;;;;;;;;;;3579599;40;20424;-76
2021/06/29 00:27:40;;;;;;;17.07;13.23;;;;;;;;;;3583011;39;20467;-77
2021/06/29 00:30:07;;;;;;;14.17;12.77;;;;;;;;;;3574755;40;20857;-77
2021/06/29 00:32:33;;;;;;;15.00;13.47;;;;;;;;;;3581459;40;20510;-77
2021/06/29 00:34:59;;;;;;;15.97;14.17;;;;;;;;;;3585083;40;20705;-77
2021/06/29 00:37:25;;;;;;;13.40;12.30;;;;;;;;;;3585775;40;20423;-77
2021/06/29 00:39:51;;;;;;;14.97;13.47;;;;;;;;;;3576000;40;20581;-77
2021/06/29 00:42:17;;;;;;;15.50;11.50;;;;;;;;;;3583646;40;21141;-75
2021/06/29 00:44:46;;;;;;;13.97;12.63;;;;;;;;;;3585527;40;20459;-75
2021/06/29 00:47:12;;;;;;;12.90;11.50;;;;;;;;;;3585583;40;20412;-75
2021/06/29 00:49:38;;;;;;;14.50;13.20;;;;;;;;;;3585620;40;21555;-75
2021/06/29 00:52:04;;;;;;;15.53;14.13;;;;;;;;;;3584623;40;20761;-76
2021/06/29 00:54:31;;;;;;;14.00;12.80;;;;;;;;;;3583459;40;20436;-75
2021/06/29 00:56:57;;;;;;;15.13;13.67;;;;;;;;;;3580868;40;21224;-75
2021/06/29 00:59:23;;;;;;;15.13;12.80;;;;;;;;;;3584328;40;20405;-76
2021/06/29 01:01:49;;;;;;;14.87;13.57;;;;;;;;;;3581619;39;20811;-75
2021/06/29 01:06:49;;;;;;;13.53;12.30;;;;;;;;;;3602376;39;20427;-84
2021/06/29 01:09:15;;;;;;;15.30;14.00;;;;;;;;;;3584604;39;20427;-81
2021/06/29 01:11:49;;;;;;;16.20;14.80;;;;;;;;;;3592362;39;20415;-82
2021/06/29 01:14:20;;;;;;;15.67;14.27;;;;;;;;;;3592779;39;20978;-82
2021/06/29 01:16:47;;;;;;;15.10;13.70;;;;;;;;;;3590156;39;20449;-82
2021/06/29 01:19:32;;;;;;;15.03;13.73;;;;;;;;;;3589213;39;20411;-82
2021/06/29 01:22:17;;;;;;;15.27;13.70;;;;;;;;;;3593377;39;20473;-83
2021/06/29 01:24:49;;;;;;;15.80;14.50;;;;;;;;;;3591157;39;20427;-82
2021/06/29 01:32:54;;;;;;;16.23;14.73;;;;;;;;;;3603117;39;20403;-83
2021/06/29 01:35:24;;;;;;;15.77;14.37;;;;;;;;;;3585264;39;20447;-82
2021/06/29 01:37:52;;;;;;;16.00;14.37;;;;;;;;;;3591396;39;20411;-82
2021/06/29 01:40:33;;;;;;;15.67;14.33;;;;;;;;;;3594049;39;20449;-83
2021/06/29 01:43:11;;;;;;;15.80;14.30;;;;;;;;;;3580917;39;20424;-82
2021/06/29 01:46:08;;;;;;;17.17;14.77;;;;;;;;;;3600569;39;20399;-84
2021/06/29 01:49:12;;;;;;;20.00;15.03;;;;;;;;;;3556224;40;20410;-83
2021/06/29 01:51:48;;;;;;;16.37;14.87;;;;;;;;;;3541751;40;20448;-82
2021/06/29 01:54:40;;;;;;;19.43;16.47;;;;;;;;;;3541967;40;20416;-82
2021/06/29 01:57:06;;;;;;;17.80;16.00;;;;;;;;;;3538814;40;20513;-82
2021/06/29 01:59:45;;;;;;;21.03;16.03;;;;;;;;;;3534762;40;20406;-81
2021/06/29 02:02:42;;;;;;;17.37;15.67;;;;;;;;;;3540319;40;20862;-83
2021/06/29 02:05:09;;;;;;;16.33;14.93;;;;;;;;;;3509611;40;20444;-82
2021/06/29 02:07:35;;;;;;;17.10;15.37;;;;;;;;;;3523986;40;20401;-82
2021/06/29 02:10:06;;;;;;;16.50;14.90;;;;;;;;;;3533346;40;20420;-82
2021/06/29 02:12:41;;;;;;;16.63;15.07;;;;;;;;;;3531543;40;20425;-82
2021/06/29 02:15:08;;;;;;;17.33;15.73;;;;;;;;;;3531468;40;20412;-82
2021/06/29 02:17:34;;;;;;;17.10;15.40;;;;;;;;;;3523079;40;20420;-82
2021/06/29 02:20:11;;;;;;;17.60;16.00;;;;;;;;;;3521762;40;21198;-82
2021/06/29 02:22:37;;;;;;;16.47;14.87;;;;;;;;;;3531437;40;21094;-82
2021/06/29 02:25:06;;;;;;;15.70;14.30;;;;;;;;;;3542767;40;20424;-82
2021/06/29 02:27:34;;;;;;;16.50;14.00;;;;;;;;;;3586585;39;20397;-82
2021/06/29 02:30:04;;;;;;;17.50;16.00;;;;;;;;;;3587243;40;20393;-82
2021/06/29 02:32:37;;;;;;;15.07;13.77;;;;;;;;;;3587341;40;20420;-83
2021/06/29 02:35:06;;;;;;;16.27;14.37;;;;;;;;;;3579488;40;20521;-83
2021/06/29 02:37:32;;;;;;;10.07;9.17;;;;;;;;;;3571888;40;20416;-82
2021/06/29 02:39:59;;;;;;;10.87;9.83;;;;;;;;;;3587828;40;20495;-82
2021/06/29 02:42:26;;;;;;;9.20;8.40;;;;;;;;;;3586508;39;21572;-81
2021/06/29 02:45:07;;;;;;;9.40;8.60;;;;;;;;;;3585142;40;20437;-82
2021/06/29 02:47:36;;;;;;;11.20;10.10;;;;;;;;;;3587192;39;20582;-81
2021/06/29 02:50:04;;;;;;;10.07;9.17;;;;;;;;;;3586350;40;20475;-82
2021/06/29 02:52:40;;;;;;;8.60;7.90;;;;;;;;;;3584445;40;20511;-81
2021/06/29 02:55:08;;;;;;;10.20;9.03;;;;;;;;;;3587731;40;20413;-82
2021/06/29 02:57:37;;;;;;;9.60;8.60;;;;;;;;;;3578473;40;20396;-82
2021/06/29 03:00:06;;;;;;;10.80;9.70;;;;;;;;;;3585788;40;20798;-82
2021/06/29 03:02:32;;;;;;;11.87;10.87;;;;;;;;;;3576722;40;20429;-82
2021/06/29 03:04:59;;;;;;;10.73;9.73;;;;;;;;;;3584991;39;20408;-82
2021/06/29 03:07:25;;;;;;;10.70;9.90;;;;;;;;;;3584748;40;20402;-82
2021/06/29 03:09:51;;;;;;;10.70;9.70;;;;;;;;;;3585269;39;20441;-82
2021/06/29 03:12:18;;;;;;;11.37;10.30;;;;;;;;;;3577377;39;20461;-82
2021/06/29 03:14:54;;;;;;;11.47;10.40;;;;;;;;;;3585279;39;20546;-82
2021/06/29 03:17:21;;;;;;;16.77;11.37;;;;;;;;;;3584688;39;20408;-80
2021/06/29 03:19:48;;;;;;;11.77;10.23;;;;;;;;;;3576457;40;20437;-81
2021/06/29 03:22:39;;;;;;;11.90;10.70;;;;;;;;;;3585365;40;20416;-81
2021/06/29 03:25:07;;;;;;;11.40;9.73;;;;;;;;;;3559079;40;20428;-81
2021/06/29 03:27:33;;;;;;;10.90;9.93;;;;;;;;;;3585347;39;20404;-81
2021/06/29 03:30:01;;;;;;;11.73;9.87;;;;;;;;;;3583411;39;20477;-81
2021/06/29 03:32:27;;;;;;;13.13;10.17;;;;;;;;;;3584433;39;20474;-82
2021/06/29 03:34:53;;;;;;;13.90;10.60;;;;;;;;;;3584650;39;20407;-81
2021/06/29 03:37:19;;;;;;;11.40;10.27;;;;;;;;;;3577125;39;20394;-81
2021/06/29 03:39:45;;;;;;;12.43;11.23;;;;;;;;;;3586132;40;20444;-82
2021/06/29 03:42:11;;;;;;;12.60;10.40;;;;;;;;;;3586360;40;20413;-82
2021/06/29 03:44:38;;;;;;;13.63;11.30;;;;;;;;;;3567645;40;22998;-81
2021/06/29 03:47:06;;;;;;;11.43;10.23;;;;;;;;;;3586322;39;20389;-82
2021/06/29 03:49:32;;;;;;;15.13;10.03;;;;;;;;;;3583989;39;20457;-82
2021/06/29 03:51:58;;;;;;;14.10;10.37;;;;;;;;;;3585235;40;20459;-82
2021/06/29 03:54:26;;;;;;;13.83;11.13;;;;;;;;;;3586248;40;20420;-83
2021/06/29 03:56:52;;;;;;;12.20;11.10;;;;;;;;;;3567530;40;20862;-82
2021/06/29 03:59:18;;;;;;;14.97;13.53;;;;;;;;;;3576307;40;20483;-82
2021/06/29 04:01:46;;;;;;;13.77;12.53;;;;;;;;;;3585250;40;20448;-81
2021/06/29 04:04:12;;;;;;;11.03;10.13;;;;;;;;;;3559429;40;20425;-82
2021/06/29 04:06:38;;;;;;;10.23;9.33;;;;;;;;;;3586238;39;20490;-82
2021/06/29 04:09:07;;;;;;;11.20;10.10;;;;;;;;;;3586577;39;20543;-82
2021/06/29 04:11:34;;;;;;;11.97;10.70;;;;;;;;;;3576459;40;20742;-82
2021/06/29 04:14:03;;;;;;;11.73;9.60;;;;;;;;;;3584394;39;20431;-83
2021/06/29 04:16:29;;;;;;;9.33;8.43;;;;;;;;;;3576805;40;20414;-83
2021/06/29 04:18:55;;;;;;;11.87;9.10;;;;;;;;;;3585796;39;20416;-82
2021/06/29 04:21:21;;;;;;;10.20;9.30;;;;;;;;;;3567813;40;20843;-82
2021/06/29 04:23:50;;;;;;;10.00;9.10;;;;;;;;;;3584352;39;20420;-82
2021/06/29 04:26:17;;;;;;;13.83;9.30;;;;;;;;;;3557770;40;20368;-83
2021/06/29 04:28:43;;;;;;;10.33;9.33;;;;;;;;;;3583940;39;20404;-81
2021/06/29 04:31:10;;;;;;;13.33;10.07;;;;;;;;;;3584826;40;20507;-81
2021/06/29 04:33:38;;;;;;;10.60;8.80;;;;;;;;;;3585458;40;20449;-82
2021/06/29 04:36:04;;;;;;;10.00;9.00;;;;;;;;;;3585171;39;20477;-81
2021/06/29 04:38:30;;;;;;;12.50;8.60;;;;;;;;;;3583563;39;20434;-82
2021/06/29 04:41:03;;;;;;;8.97;8.07;;;;;;;;;;3584892;39;20446;-82
2021/06/29 04:43:30;;;;;;;9.87;7.40;;;;;;;;;;3584529;40;20745;-82
2021/06/29 04:45:57;;;;;;;8.30;7.20;;;;;;;;;;3569976;40;20428;-82
2021/06/29 04:48:25;;;;;;;7.83;7.03;;;;;;;;;;3559584;40;21286;-82
2021/06/29 04:50:53;;;;;;;8.53;7.80;;;;;;;;;;3576692;40;21205;-82
2021/06/29 04:53:27;;;;;;;7.73;7.03;;;;;;;;;;3585263;39;20409;-82
2021/06/29 04:55:54;;;;;;;11.07;7.63;;;;;;;;;;3583204;40;20449;-82
2021/06/29 04:58:20;;;;;;;8.50;7.70;;;;;;;;;;3581341;40;20415;-82
2021/06/29 05:00:49;;;;;;;11.83;8.10;;;;;;;;;;3577760;40;20421;-82
2021/06/29 05:03:16;;;;;;;9.17;8.00;;;;;;;;;;3585399;39;20436;-82
2021/06/29 05:05:42;;;;;;;9.13;8.33;;;;;;;;;;3560279;40;20423;-82
2021/06/29 05:08:08;;;;;;;10.00;9.00;;;;;;;;;;3569343;40;20420;-83
2021/06/29 05:10:35;;;;;;;9.83;8.93;;;;;;;;;;3586761;39;20779;-82
2021/06/29 05:13:02;;;;;;;18.27;9.37;;;;;;;;;;3578477;40;20409;-82
2021/06/29 05:15:30;;;;;;;8.83;7.70;;;;;;;;;;3585623;39;20405;-83
2021/06/29 05:17:59;;;;;;;11.40;10.17;;;;;;;;;;3584886;39;20425;-83
2021/06/29 05:20:25;;;;;;;12.23;11.10;;;;;;;;;;3583683;40;21211;-83
2021/06/29 05:22:52;;;;;;;11.40;10.33;;;;;;;;;;3559719;40;20463;-83
2021/06/29 05:25:19;;;;;;;10.97;10.03;;;;;;;;;;3561662;40;20690;-83
2021/06/29 05:27:45;;;;;;;11.73;10.50;;;;;;;;;;3583668;39;20572;-83
2021/06/29 05:30:11;;;;;;;12.50;11.23;;;;;;;;;;3560204;39;20839;-83
2021/06/29 05:32:38;;;;;;;10.70;9.73;;;;;;;;;;3576899;40;20407;-81
2021/06/29 05:35:04;;;;;;;11.13;10.03;;;;;;;;;;3585442;39;20465;-81
2021/06/29 05:37:31;;;;;;;8.07;7.27;;;;;;;;;;3583858;39;20412;-83
2021/06/29 05:39:58;;;;;;;11.70;7.90;;;;;;;;;;3586401;39;20405;-82
2021/06/29 05:42:25;;;;;;;8.37;7.60;;;;;;;;;;3579589;40;20425;-82
2021/06/29 05:44:51;;;;;;;8.63;7.77;;;;;;;;;;3581973;39;20453;-83
2021/06/29 05:47:21;;;;;;;8.00;7.30;;;;;;;;;;3558302;40;20405;-83
2021/06/29 05:49:47;;;;;;;8.80;7.90;;;;;;;;;;3557557;40;20463;-83
2021/06/29 05:52:19;;;;;;;8.97;8.17;;;;;;;;;;3560418;40;21219;-82
2021/06/29 05:54:45;;;;;;;9.43;8.47;;;;;;;;;;3583250;39;20490;-81
2021/06/29 05:57:12;;;;;;;9.23;8.30;;;;;;;;;;3573073;40;20506;-82
2021/06/29 05:59:39;;;;;;;8.90;8.10;;;;;;;;;;3566261;40;20748;-82
2021/06/29 06:02:05;;;;;;;9.20;8.50;;;;;;;;;;3563799;39;20729;-83
2021/06/29 06:04:32;;;;;;;10.10;9.13;;;;;;;;;;3583801;40;20382;-82
2021/06/29 06:06:58;;;;;;;10.13;9.30;;;;;;;;;;3574436;39;20413;-82
2021/06/29 06:09:24;;;;;;;10.17;8.33;;;;;;;;;;3569221;40;20452;-82
2021/06/29 06:11:50;;;;;;;13.07;9.73;;;;;;;;;;3559297;40;20506;-83
2021/06/29 06:14:16;;;;;;;11.13;10.03;;;;;;;;;;3583105;39;20398;-83
2021/06/29 06:16:42;;;;;;;12.43;10.13;;;;;;;;;;3583723;40;20711;-83
2021/06/29 06:19:09;;;;;;;12.53;11.23;;;;;;;;;;3565238;40;20435;-83
2021/06/29 06:21:36;;;;;;;13.83;11.03;;;;;;;;;;3567526;40;20466;-83
2021/06/29 06:24:02;;;;;;;14.53;11.90;;;;;;;;;;3558892;40;20400;-82
2021/06/29 06:26:29;;;;;;;13.87;12.57;;;;;;;;;;3566657;40;20435;-83
2021/06/29 06:29:13;;;;;;;13.87;11.00;;;;;;;;;;3568949;40;21262;-82
2021/06/29 06:31:40;;;;;;;11.10;10.00;;;;;;;;;;3575563;39;20437;-83
2021/06/29 06:34:07;;;;;;;13.67;12.27;;;;;;;;;;3566891;40;20405;-82
2021/06/29 06:36:33;;;;;;;14.67;13.17;;;;;;;;;;3577128;40;20421;-83
2021/06/29 06:39:00;;;;;;;15.93;14.23;;;;;;;;;;3574264;40;20490;-83
2021/06/29 06:41:29;;;;;;;15.43;13.90;;;;;;;;;;3565032;40;20786;-83
2021/06/29 06:43:58;;;;;;;19.40;14.70;;;;;;;;;;3578766;39;20393;-82
2021/06/29 06:46:31;;;;;;;17.53;15.47;;;;;;;;;;3573741;40;20416;-85
2021/06/29 06:49:39;;;;;;;17.10;15.33;;;;;;;;;;3563625;40;20920;-83
2021/06/29 06:52:09;;;;;;;19.90;17.70;;;;;;;;;;3580864;39;20416;-84
2021/06/29 06:54:38;;;;;;;21.70;19.40;;;;;;;;;;3574430;40;20485;-85
2021/06/29 06:57:09;;;;;;;22.03;19.70;;;;;;;;;;3568546;40;20413;-84
2021/06/29 06:59:48;;;;;;;26.77;18.37;;;;;;;;;;3553521;40;20513;-85
2021/06/29 07:02:30;;;;;;;21.63;19.40;;;;;;;;;;3560093;40;20528;-84
2021/06/29 07:05:01;;;;;;;20.10;17.93;;;;;;;;;;3552381;40;20463;-87
2021/06/29 07:07:37;;;;;;;20.00;17.87;;;;;;;;;;3552623;40;20454;-86
2021/06/29 07:10:08;;;;;;;21.27;19.07;;;;;;;;;;3546557;40;20877;-87
2021/06/29 07:12:40;;;;;;;16.37;14.70;;;;;;;;;;3549731;40;20529;-87
2021/06/29 07:15:54;;;;;;;16.00;14.40;;;;;;;;;;3551797;40;20414;-84
2021/06/29 07:18:43;;;;;;;16.00;14.53;;;;;;;;;;3522064;40;20420;-86
2021/06/29 07:21:48;;;;;;;17.00;15.20;;;;;;;;;;3509441;40;20422;-85
2021/06/29 07:28:03;;;;;;;11.97;10.97;;;;;;;;;;3492276;41;20468;-86
2021/06/29 07:30:37;;;;;;;10.80;9.90;;;;;;;;;;3498838;41;20427;-85
2021/06/29 07:33:26;;;;;;;11.57;10.20;;;;;;;;;;3491772;40;20423;-85
2021/06/29 07:36:32;;;;;;;11.13;10.10;;;;;;;;;;3492732;41;20866;-85
2021/06/29 07:39:04;;;;;;;9.83;9.10;;;;;;;;;;3516799;40;20398;-86
2021/06/29 07:42:07;;;;;;;9.63;8.73;;;;;;;;;;3511785;40;21271;-85
2021/06/29 07:45:00;;;;;;;8.30;7.40;;;;;;;;;;3515850;40;20419;-84
2021/06/29 07:47:47;;;;;;;8.67;7.80;;;;;;;;;;3516038;40;20411;-84
2021/06/29 07:53:56;;;;;;;8.07;7.40;;;;;;;;;;3526602;40;20858;-85
2021/06/29 07:56:59;;;;;;;8.57;7.87;;;;;;;;;;3498070;41;20491;-87
2021/06/29 07:59:32;;;;;;;8.50;7.77;;;;;;;;;;3511336;40;20510;-84
2021/06/29 08:05:41;;;;;;;9.87;9.07;;;;;;;;;;3509104;40;20949;-86
2021/06/29 08:08:14;;;;;;;9.67;8.97;;;;;;;;;;3468462;41;20420;-84
2021/06/29 08:10:55;;;;;;;10.13;9.20;;;;;;;;;;3487468;41;20437;-88
2021/06/29 08:13:55;;;;;;;8.57;7.77;;;;;;;;;;3487100;41;20409;-84
2021/06/29 08:19:42;;;;;;;8.33;7.73;;;;;;;;;;3488187;41;20425;-84
2021/06/29 08:22:47;;;;;;;7.90;7.30;;;;;;;;;;3496602;41;20465;-84
2021/06/29 08:25:29;;;;;;;8.37;7.70;;;;;;;;;;3487188;41;20463;-87
2021/06/29 08:28:07;;;;;;;10.40;9.27;;;;;;;;;;3479112;41;20463;-88
2021/06/29 08:30:38;;;;;;;16.00;14.40;;;;;;;;;;3511438;40;21038;-89
2021/06/29 08:33:32;;;;;;;17.57;15.97;;;;;;;;;;3481323;41;20781;-87
2021/06/29 08:43:48;;;;;;;19.00;17.30;;;;;;;;;;3480333;41;20473;-86
2021/06/29 08:46:25;;;;;;;18.77;17.07;;;;;;;;;;3501330;40;20505;-85
2021/06/29 08:49:07;;;;;;;18.07;16.23;;;;;;;;;;3486697;41;20423;-85
2021/06/29 08:51:59;;;;;;;15.60;14.20;;;;;;;;;;3493936;41;20421;-85
2021/06/29 08:54:51;;;;;;;18.80;16.50;;;;;;;;;;3468117;41;20418;-86
2021/06/29 08:57:24;;;;;;;21.13;19.13;;;;;;;;;;3474675;41;20759;-84
2021/06/29 09:00:06;;;;;;;21.33;19.47;;;;;;;;;;3477397;41;20438;-84
2021/06/29 09:03:01;;;;;;;20.90;18.93;;;;;;;;;;3476842;41;21256;-85
2021/06/29 09:05:32;;;;;;;22.73;20.77;;;;;;;;;;3483832;40;20806;-84
2021/06/29 09:08:10;;;;;;;23.47;21.47;;;;;;;;;;3493951;41;20465;-83
2021/06/29 09:14:15;;;;;;;26.80;24.07;;;;;;;;;;3470740;41;20952;-85
2021/06/29 09:17:00;;;;;;;27.53;25.10;;;;;;;;;;3476749;41;20429;-84
2021/06/29 09:23:11;;;;;;;30.47;27.40;;;;;;;;;;3494932;41;20814;-87
2021/06/29 09:25:38;;;;;;;30.00;26.97;;;;;;;;;;3492974;41;20520;-82
2021/06/29 09:28:12;;;;;;;29.03;26.10;;;;;;;;;;3472272;41;20430;-85
2021/06/29 09:30:51;;;;;;;29.70;26.93;;;;;;;;;;3477241;41;20438;-85
2021/06/29 09:33:47;;;;;;;27.83;24.93;;;;;;;;;;3503572;40;20408;-86
2021/06/29 09:36:52;;;;;;;27.50;24.67;;;;;;;;;;3494457;40;20670;-85
2021/06/29 09:39:28;;;;;;;28.97;26.27;;;;;;;;;;3511090;40;20407;-87
2021/06/29 09:42:06;;;;;;;28.20;25.17;;;;;;;;;;3503693;40;20451;-85
2021/06/29 09:44:53;;;;;;;29.77;26.57;;;;;;;;;;3479402;41;20403;-84
2021/06/29 09:47:40;;;;;;;28.40;25.73;;;;;;;;;;3471509;41;20626;-83
2021/06/29 09:50:47;;;;;;;24.33;21.93;;;;;;;;;;3472780;41;21026;-85
2021/06/29 09:53:23;;;;;;;25.03;22.60;;;;;;;;;;3491796;41;20460;-86
2021/06/29 09:56:05;;;;;;;26.47;23.67;;;;;;;;;;3485994;41;20441;-85
2021/06/29 09:58:56;;;;;;;28.03;23.13;;;;;;;;;;3491787;41;20405;-85
2021/06/29 10:01:48;;;;;;;26.43;24.07;;;;;;;;;;3504856;40;22372;-85
2021/06/29 10:04:44;;;;;;;26.60;24.20;;;;;;;;;;3495367;40;20484;-84
2021/06/29 10:07:22;;;;;;;29.30;26.33;;;;;;;;;;3488011;40;20428;-86
2021/06/29 10:10:41;;;;;;;25.70;23.43;;;;;;;;;;3457897;41;20923;-83
2021/06/29 10:13:38;;;;;;;23.90;21.80;;;;;;;;;;3471779;41;20446;-85
2021/06/29 10:16:33;;;;;;;29.03;26.47;;;;;;;;;;3473441;41;20438;-83
2021/06/29 10:22:22;;;;;;;28.30;25.33;;;;;;;;;;3513373;40;20423;-88
2021/06/29 10:24:54;;;;;;;25.77;23.43;;;;;;;;;;3511308;40;21337;-86
2021/06/29 10:27:25;;;;;;;26.67;24.37;;;;;;;;;;3505641;41;20821;-87
2021/06/29 10:30:07;;;;;;;26.23;23.90;;;;;;;;;;3497135;40;20415;-86
2021/06/29 10:32:52;;;;;;;23.63;21.53;;;;;;;;;;3514802;40;20418;-84
2021/06/29 10:35:27;;;;;;;24.33;22.20;;;;;;;;;;3524982;40;20489;-86
2021/06/29 10:38:41;;;;;;;25.30;22.90;;;;;;;;;;3521212;40;20730;-86
2021/06/29 10:41:12;;;;;;;22.97;21.00;;;;;;;;;;3517436;40;20414;-84
2021/06/29 10:44:22;;;;;;;24.50;21.90;;;;;;;;;;3537300;40;20406;-84
2021/06/29 10:47:07;;;;;;;26.80;24.40;;;;;;;;;;3504734;40;20433;-86
2021/06/29 10:49:53;;;;;;;28.70;25.90;;;;;;;;;;3541543;40;20446;-86
2021/06/29 10:52:32;;;;;;;26.90;24.33;;;;;;;;;;3531235;40;20488;-87
2021/06/29 10:55:23;;;;;;;25.80;23.57;;;;;;;;;;3519221;40;20419;-87
2021/06/29 10:58:04;;;;;;;28.77;26.13;;;;;;;;;;3513996;40;20620;-85
2021/06/29 11:00:41;;;;;;;27.93;25.43;;;;;;;;;;3517059;40;20752;-85
2021/06/29 11:03:29;;;;;;;26.67;24.00;;;;;;;;;;3528666;40;20413;-87
2021/06/29 11:06:13;;;;;;;23.80;21.50;;;;;;;;;;3514468;40;20563;-86
2021/06/29 11:09:21;;;;;;;26.60;24.10;;;;;;;;;;3527542;40;20490;-87
2021/06/29 11:12:12;;;;;;;31.60;28.60;;;;;;;;;;3508928;40;20433;-84
2021/06/29 11:14:55;;;;;;;29.67;26.60;;;;;;;;;;3496931;40;20407;-84
2021/06/29 11:17:53;;;;;;;32.30;29.30;;;;;;;;;;3511765;40;20414;-85
2021/06/29 11:20:40;;;;;;;30.20;27.20;;;;;;;;;;3496454;41;20512;-85
2021/06/29 11:23:20;;;;;;;29.60;26.70;;;;;;;;;;3484250;40;20817;-84
2021/06/29 11:26:10;;;;;;;29.07;26.17;;;;;;;;;;3491002;41;20413;-84
2021/06/29 11:28:49;;;;;;;28.53;25.63;;;;;;;;;;3494488;41;20916;-84
2021/06/29 11:31:47;;;;;;;36.13;28.40;;;;;;;;;;3467310;41;20477;-84
2021/06/29 11:34:34;;;;;;;30.17;27.07;;;;;;;;;;3504474;40;20436;-84
2021/06/29 11:37:09;;;;;;;30.70;27.53;;;;;;;;;;3497373;40;20968;-87
2021/06/29 11:40:00;;;;;;;31.13;28.00;;;;;;;;;;3490129;41;20761;-87
2021/06/29 11:42:53;;;;;;;31.67;28.37;;;;;;;;;;3483198;41;20439;-84
2021/06/29 11:48:52;;;;;;;25.17;22.87;;;;;;;;;;3472217;41;20588;-86
2021/06/29 11:51:46;;;;;;;23.47;21.37;;;;;;;;;;3483957;41;20858;-88
2021/06/29 11:54:36;;;;;;;21.53;19.50;;;;;;;;;;3490273;41;20418;-84
2021/06/29 11:57:23;;;;;;;23.83;21.73;;;;;;;;;;3523341;40;20417;-86
2021/06/29 12:00:27;;;;;;;20.67;18.87;;;;;;;;;;3509754;40;20412;-84
2021/06/29 12:03:07;;;;;;;15.10;13.90;;;;;;;;;;3496831;40;20482;-84
2021/06/29 12:05:39;;;;;;;18.77;16.97;;;;;;;;;;3497441;40;20491;-85
2021/06/29 12:08:21;;;;;;;17.93;16.23;;;;;;;;;;3497407;40;20435;-86
2021/06/29 12:11:00;;;;;;;20.13;18.30;;;;;;;;;;3502407;40;20415;-84
2021/06/29 12:14:03;;;;;;;21.30;19.40;;;;;;;;;;3493638;40;21377;-84
2021/06/29 12:16:33;;;;;;;21.57;19.50;;;;;;;;;;3476124;41;20433;-84
2021/06/29 12:19:36;;;;;;;20.87;18.97;;;;;;;;;;3493285;40;20409;-85
2021/06/29 12:22:12;;;;;;;23.30;21.27;;;;;;;;;;3477267;41;20510;-86
2021/06/29 12:25:23;;;;;;;22.50;20.60;;;;;;;;;;3473260;41;20409;-87
2021/06/29 12:28:00;;;;;;;25.57;22.07;;;;;;;;;;3469837;41;20785;-87
2021/06/29 12:33:53;;;;;;;22.63;20.73;;;;;;;;;;3468621;41;20427;-86
2021/06/29 12:36:47;;;;;;;23.60;21.60;;;;;;;;;;3470980;41;20433;-84
2021/06/29 12:39:25;;;;;;;21.97;19.97;;;;;;;;;;3488290;41;20460;-84
2021/06/29 12:42:00;;;;;;;19.43;17.83;;;;;;;;;;3493941;41;20420;-86
2021/06/29 12:45:03;;;;;;;20.73;19.03;;;;;;;;;;3487054;41;20451;-85
2021/06/29 12:48:08;;;;;;;17.67;16.27;;;;;;;;;;3492361;40;20447;-86
2021/06/29 12:50:41;;;;;;;21.07;19.27;;;;;;;;;;3490317;41;20773;-85
2021/06/29 12:53:35;;;;;;;22.13;20.10;;;;;;;;;;3495257;41;20839;-86
2021/06/29 12:56:25;;;;;;;22.47;20.77;;;;;;;;;;3482603;41;20413;-83
2021/06/29 12:58:53;;;;;;;23.63;21.60;;;;;;;;;;3490592;41;20417;-85
2021/06/29 13:01:57;;;;;;;20.27;18.67;;;;;;;;;;3494635;40;21051;-87
2021/06/29 13:04:34;;;;;;;22.70;20.60;;;;;;;;;;3492717;41;20444;-85
2021/06/29 13:07:16;;;;;;;21.43;19.70;;;;;;;;;;3505398;40;20481;-85
2021/06/29 13:10:11;;;;;;;25.20;23.03;;;;;;;;;;3504907;40;20508;-84
2021/06/29 13:13:11;;;;;;;21.27;19.63;;;;;;;;;;3503705;40;20415;-86
2021/06/29 13:16:24;;;;;;;18.30;16.60;;;;;;;;;;3513962;40;20447;-85
2021/06/29 13:19:05;;;;;;;20.30;18.30;;;;;;;;;;3505813;40;20479;-83
2021/06/29 13:21:36;;;;;;;21.40;19.60;;;;;;;;;;3504809;40;21150;-85
2021/06/29 13:24:18;;;;;;;22.70;20.60;;;;;;;;;;3505365;40;20511;-86
2021/06/29 13:27:32;;;;;;;23.73;21.40;;;;;;;;;;3513503;40;20443;-84
2021/06/29 13:30:27;;;;;;;19.23;17.73;;;;;;;;;;3503658;41;20412;-85
2021/06/29 13:33:30;;;;;;;22.50;20.63;;;;;;;;;;3486353;41;20429;-82
2021/06/29 13:36:17;;;;;;;19.73;18.13;;;;;;;;;;3459005;41;20525;-84
2021/06/29 13:38:57;;;;;;;16.30;15.00;;;;;;;;;;3458591;41;20439;-86
2021/06/29 13:41:56;;;;;;;16.43;15.00;;;;;;;;;;3432701;41;20998;-85
2021/06/29 13:44:35;;;;;;;17.10;15.30;;;;;;;;;;3441143;41;20449;-84
2021/06/29 13:47:16;;;;;;;17.27;15.67;;;;;;;;;;3442191;41;20434;-87
2021/06/29 13:50:05;;;;;;;17.47;16.17;;;;;;;;;;3434546;41;20445;-88
2021/06/29 13:52:52;;;;;;;13.77;12.80;;;;;;;;;;3447879;41;20398;-85
2021/06/29 13:55:34;;;;;;;13.27;12.27;;;;;;;;;;3439469;41;20466;-85
2021/06/29 13:58:40;;;;;;;11.70;10.80;;;;;;;;;;3447925;41;20785;-86
2021/06/29 14:01:32;;;;;;;13.37;12.20;;;;;;;;;;3448144;41;20453;-83
2021/06/29 14:04:07;;;;;;;13.90;12.70;;;;;;;;;;3458848;41;20513;-83
2021/06/29 14:06:35;;;;;;;14.67;13.40;;;;;;;;;;3473021;41;20731;-82
2021/06/29 14:09:08;;;;;;;12.23;11.03;;;;;;;;;;3495428;41;20432;-82
2021/06/29 14:11:36;;;;;;;13.47;12.10;;;;;;;;;;3503006;41;20415;-82
2021/06/29 14:14:02;;;;;;;14.60;12.60;;;;;;;;;;3534799;40;20402;-82
2021/06/29 14:16:28;;;;;;;15.23;14.00;;;;;;;;;;3534593;40;20405;-82
2021/06/29 14:18:55;;;;;;;16.13;14.83;;;;;;;;;;3521231;40;20620;-82
2021/06/29 14:21:22;;;;;;;12.73;11.57;;;;;;;;;;3532716;40;20504;-81
2021/06/29 14:23:49;;;;;;;13.63;12.43;;;;;;;;;;3533863;40;20397;-81
2021/06/29 14:26:17;;;;;;;13.50;12.50;;;;;;;;;;3534292;40;20564;-81
2021/06/29 14:28:43;;;;;;;13.43;12.10;;;;;;;;;;3527009;40;20982;-81
2021/06/29 14:31:10;;;;;;;12.47;11.47;;;;;;;;;;3525007;40;21493;-82
2021/06/29 14:33:37;;;;;;;13.77;12.57;;;;;;;;;;3557117;40;20417;-81
2021/06/29 14:36:04;;;;;;;15.57;14.33;;;;;;;;;;3570618;40;20527;-81
2021/06/29 14:38:30;;;;;;;14.83;13.50;;;;;;;;;;3580719;40;20417;-81
2021/06/29 14:40:57;;;;;;;13.67;12.40;;;;;;;;;;3584306;39;20418;-81
2021/06/29 14:43:23;;;;;;;17.10;15.60;;;;;;;;;;3582362;39;20431;-81
2021/06/29 14:45:50;;;;;;;16.30;15.00;;;;;;;;;;3580235;39;20421;-82
2021/06/29 14:48:17;;;;;;;17.90;16.30;;;;;;;;;;3580708;39;20455;-82
2021/06/29 14:50:44;;;;;;;15.83;14.47;;;;;;;;;;3580662;39;20420;-82
2021/06/29 14:53:10;;;;;;;13.80;12.60;;;;;;;;;;3580510;39;20408;-81
2021/06/29 14:55:37;;;;;;;13.77;12.63;;;;;;;;;;3581163;39;20436;-80
2021/06/29 14:58:03;;;;;;;15.57;14.17;;;;;;;;;;3581392;39;20490;-82
2021/06/29 15:00:34;;;;;;;17.23;15.53;;;;;;;;;;3583008;39;20409;-81
2021/06/29 15:03:01;;;;;;;17.27;15.57;;;;;;;;;;3572850;40;20559;-81
2021/06/29 15:05:27;;;;;;;21.10;19.07;;;;;;;;;;3579634;39;20484;-81
2021/06/29 15:07:55;;;;;;;17.23;15.73;;;;;;;;;;3575955;40;20442;-81
2021/06/29 15:10:22;;;;;;;18.80;17.17;;;;;;;;;;3582505;39;20421;-81
2021/06/29 15:12:48;;;;;;;20.20;18.30;;;;;;;;;;3581203;40;20411;-82
2021/06/29 15:15:16;;;;;;;22.30;20.27;;;;;;;;;;3581702;39;20599;-81
2021/06/29 15:17:42;;;;;;;19.67;17.87;;;;;;;;;;3581070;39;20409;-82
2021/06/29 15:20:15;;;;;;;18.47;16.77;;;;;;;;;;3581879;39;20704;-82
2021/06/29 15:22:45;;;;;;;16.70;15.30;;;;;;;;;;3580796;40;20401;-80
2021/06/29 15:25:13;;;;;;;17.00;15.60;;;;;;;;;;3581508;39;20502;-81
2021/06/29 15:27:49;;;;;;;17.67;16.23;;;;;;;;;;3580544;40;21297;-80
2021/06/29 15:30:20;;;;;;;20.90;18.90;;;;;;;;;;3571674;40;20491;-80
2021/06/29 15:36:17;;;;;;;19.63;17.83;;;;;;;;;;3583175;39;20694;-81
2021/06/29 15:42:02;;;;;;;18.47;16.67;;;;;;;;;;3580423;39;20436;-82
2021/06/29 15:44:29;;;;;;;18.23;16.63;;;;;;;;;;3580981;39;20412;-81
2021/06/29 15:50:34;;;;;;;15.70;14.40;;;;;;;;;;3573125;39;20749;-81
2021/06/29 15:54:20;;;;;;;;;;;;;;;;;;;;;
2021/06/29 16:00:19;;;;;;;18.10;16.40;;;;;;;;;;3542688;40;20569;-83
2021/06/29 16:02:47;;;;;;;18.20;16.60;;;;;;;;;;3536380;40;20428;-81
2021/06/29 16:05:14;;;;;;;15.13;13.93;;;;;;;;;;3544252;40;22646;-82
2021/06/29 16:07:40;;;;;;;14.90;13.50;;;;;;;;;;3544775;40;20484;-80
2021/06/29 16:10:08;;;;;;;15.43;13.83;;;;;;;;;;3543527;40;20420;-81
2021/06/29 16:12:36;;;;;;;17.40;15.70;;;;;;;;;;3536757;40;20464;-80